Погода Таймиштэна 2 недели

Скопье, Македония

13 - 26 июля
  • 13июля
    Сегодня
    +16°
    +34°
    Практически безоблачно
    ВремяПогодаТемператураВлажностьДавлениеВетер, м/сВероятность осадков
    02:00Ясно и безоблачно+17°C72 %699 мм0.5 м/с2 %
    05:00Ясно и безоблачно+17°C65 %699 мм0.7 м/с2 %
    08:00Ясно и безоблачно+23°C56 %701 мм0.2 м/с2 %
    11:00Ясно и безоблачно+30°C34 %702 мм1.1 м/с2 %
    14:00Практически безоблачно+33°C27 %701 мм1.9 м/с2 %
    17:00Практически безоблачно+33°C28 %701 мм2.4 м/с3 %
    20:00Практически безоблачно+26°C55 %700 мм1.4 м/с2 %
    23:00Ясно и безоблачно+20°C83 %700 мм1.1 м/с2 %
  • 14июля
    Воскресенье
    +17°
    +34°
    Практически безоблачно
    ВремяПогодаТемператураВлажностьДавлениеВетер, м/сВероятность осадков
    02:00Ясно и безоблачно+18°C71 %700 мм1.1 м/с2 %
    05:00Ясно и безоблачно+17°C63 %700 мм1.2 м/с2 %
    08:00Ясно и безоблачно+23°C51 %701 мм0.1 м/с2 %
    11:00Ясно и безоблачно+31°C32 %702 мм0.9 м/с2 %
    14:00Практически безоблачно+34°C28 %702 мм1.2 м/с5 %
    17:00Практически безоблачно+31°C46 %702 мм1.5 м/с14 %
    20:00Ясно и безоблачно+26°C65 %701 мм0.8 м/с3 %
    23:00Ясно и безоблачно+20°C79 %700 мм1.3 м/с2 %
  • 15июля
    Понедельник
    +16°
    +34°
    Ясно и безоблачно
    ВремяПогодаТемператураВлажностьДавлениеВетер, м/сВероятность осадков
    02:00Ясно и безоблачно+18°C68 %700 мм1.1 м/с2 %
    05:00Ясно и безоблачно+18°C61 %700 мм1.4 м/с2 %
    08:00Ясно и безоблачно+24°C49 %702 мм1.0 м/с2 %
    11:00Ясно и безоблачно+31°C33 %703 мм2.3 м/с2 %
    14:00Ясно и безоблачно+33°C25 %702 мм2.7 м/с2 %
    17:00Ясно и безоблачно+33°C24 %702 мм3.0 м/с2 %
    20:00Практически безоблачно+27°C44 %701 мм1.4 м/с2 %
    23:00Ясно и безоблачно+22°C48 %701 мм1.6 м/с2 %
  • 16июля
    Вторник
    +15°
    +35°
    Ясно и безоблачно
    ВремяПогодаТемператураВлажностьДавлениеВетер, м/сВероятность осадков
    02:00Ясно и безоблачно+19°C57 %700 мм1.5 м/с2 %
    05:00Ясно и безоблачно+16°C60 %700 мм1.3 м/с2 %
    08:00Ясно и безоблачно+24°C47 %702 мм0.4 м/с2 %
    11:00Ясно и безоблачно+31°C30 %703 мм1.2 м/с2 %
    14:00Ясно и безоблачно+34°C20 %702 мм2.1 м/с3 %
    17:00Ясно и безоблачно+34°C16 %701 мм1.8 м/с5 %
    20:00Ясно и безоблачно+27°C36 %700 мм1.1 м/с2 %
    23:00Ясно и безоблачно+19°C62 %700 мм1.3 м/с2 %
  • 17июля
    Среда
    +17°
    +35°
    Ясно и безоблачно
    ВремяПогодаТемператураВлажностьДавлениеВетер, м/сВероятность осадков
    02:00Ясно и безоблачно+17°C61 %699 мм1.2 м/с2 %
    05:00Ясно и безоблачно+16°C56 %700 мм1.3 м/с2 %
    08:00Ясно и безоблачно+24°C45 %702 мм0.4 м/с2 %
    11:00Ясно и безоблачно+31°C29 %703 мм1.1 м/с2 %
    14:00Ясно и безоблачно+34°C23 %703 мм1.4 м/с9 %
    17:00Облачно с прояснениями+35°C25 %702 мм2.0 м/с12 %
    20:00Небольшая облачность+27°C47 %702 мм1.3 м/с4 %
    23:00Ясно и безоблачно+21°C61 %701 мм1.5 м/с2 %
Мы используем cookies
Соглашаюсь